createdAt,value
2018-03-22T00:00:27.263Z,30.80
2018-03-22T00:02:59.867Z,31.37
2018-03-22T00:05:32.452Z,26.77
2018-03-22T00:08:04.754Z,25.83
2018-03-22T00:10:37.467Z,33.27
2018-03-22T00:13:10.808Z,32.03
2018-03-22T00:15:44.808Z,30.93
2018-03-22T00:18:17.284Z,32.50
2018-03-22T00:20:49.618Z,33.97
2018-03-22T00:23:22.057Z,29.87
2018-03-22T00:25:54.658Z,31.07
2018-03-22T00:28:27.182Z,31.33
2018-03-22T00:30:59.717Z,34.40
2018-03-22T00:33:32.104Z,31.40
2018-03-22T00:36:05.278Z,32.27
2018-03-22T00:38:38.436Z,30.47
2018-03-22T00:41:11.096Z,31.40
2018-03-22T00:43:44.396Z,28.33
2018-03-22T00:46:17.187Z,30.83
2018-03-22T00:48:49.592Z,30.67
2018-03-22T00:51:22.156Z,31.60
2018-03-22T00:53:54.699Z,41.07
2018-03-22T00:56:27.182Z,33.93
2018-03-22T00:59:00.296Z,30.07
2018-03-22T01:01:32.846Z,32.90
2018-03-22T01:04:05.221Z,34.20
2018-03-22T01:06:38.586Z,33.37
2018-03-22T01:09:11.017Z,32.93
2018-03-22T01:11:43.552Z,36.37
2018-03-22T01:14:16.089Z,29.03
2018-03-22T01:16:48.421Z,32.13
2018-03-22T01:19:22.278Z,29.33
2018-03-22T01:21:54.703Z,34.07
2018-03-22T01:24:27.802Z,35.33
2018-03-22T01:27:00.167Z,37.53
2018-03-22T01:29:32.665Z,33.53
2018-03-22T01:32:05.187Z,32.60
2018-03-22T01:34:37.653Z,28.60
2018-03-22T01:37:10.903Z,30.63
2018-03-22T01:39:43.360Z,32.73
2018-03-22T01:42:16.658Z,35.37
2018-03-22T01:44:48.966Z,31.60
2018-03-22T01:47:21.416Z,31.97
2018-03-22T01:49:53.917Z,31.77
2018-03-22T01:52:27.122Z,30.83
2018-03-22T01:54:59.439Z,32.33
2018-03-22T01:57:31.965Z,33.33
2018-03-22T02:00:04.483Z,32.73
2018-03-22T02:02:37.004Z,31.90
2018-03-22T02:05:09.592Z,29.40
2018-03-22T02:07:41.967Z,32.27
2018-03-22T02:10:14.661Z,27.53
2018-03-22T02:12:47.322Z,34.97
2018-03-22T02:15:19.994Z,37.03
2018-03-22T02:17:53.096Z,34.23
2018-03-22T02:20:26.413Z,38.60
2018-03-22T02:22:58.913Z,33.20
2018-03-22T02:25:31.446Z,37.80
2018-03-22T02:28:04.670Z,31.50
2018-03-22T02:30:37.807Z,28.07
2018-03-22T02:33:10.238Z,30.37
2018-03-22T02:35:43.359Z,26.90
2018-03-22T02:38:16.472Z,30.00
2018-03-22T02:40:49.656Z,27.60
2018-03-22T02:43:22.816Z,29.30
2018-03-22T02:45:56.075Z,27.00
2018-03-22T02:48:29.188Z,30.93
2018-03-22T02:51:02.574Z,23.00
2018-03-22T02:53:35.211Z,29.17
2018-03-22T02:56:07.863Z,28.53
2018-03-22T02:58:40.301Z,29.73
2018-03-22T03:01:12.649Z,23.97
2018-03-22T03:03:45.355Z,29.27
2018-03-22T03:06:17.904Z,25.77
2018-03-22T03:08:50.571Z,26.60
2018-03-22T03:11:23.270Z,24.73
2018-03-22T03:13:55.731Z,23.83
2018-03-22T03:16:28.167Z,22.57
2018-03-22T03:19:01.599Z,22.07
2018-03-22T03:21:34.221Z,21.33
2018-03-22T03:24:06.780Z,21.80
2018-03-22T03:26:40.085Z,22.67
2018-03-22T03:29:12.697Z,27.17
2018-03-22T03:31:46.004Z,26.90
2018-03-22T03:34:18.646Z,29.73
2018-03-22T03:36:51.232Z,24.40
2018-03-22T03:39:23.691Z,26.63
2018-03-22T03:41:56.346Z,28.97
2018-03-22T03:44:28.868Z,30.57
2018-03-22T03:47:01.253Z,21.97
2018-03-22T03:52:13.607Z,28.60
2018-03-22T03:54:46.178Z,27.93
2018-03-22T03:57:19.413Z,28.63
2018-03-22T03:59:51.908Z,28.17
2018-03-22T04:02:24.292Z,35.23
2018-03-22T04:04:57.361Z,27.70
2018-03-22T04:07:30.769Z,30.87
2018-03-22T04:10:03.375Z,30.53
2018-03-22T04:12:35.852Z,32.47
2018-03-22T04:15:08.454Z,32.47
2018-03-22T04:17:40.857Z,30.97
2018-03-22T04:20:13.351Z,36.13
2018-03-22T04:22:46.099Z,34.67
2018-03-22T04:25:18.634Z,30.97
2018-03-22T04:27:51.117Z,30.97
2018-03-22T04:30:23.720Z,34.20
2018-03-22T04:32:56.189Z,29.83
2018-03-22T04:35:28.718Z,31.83
2018-03-22T04:38:01.912Z,31.00
2018-03-22T04:40:35.203Z,29.77
2018-03-22T04:43:07.708Z,37.23
2018-03-22T04:45:41.135Z,37.03
2018-03-22T04:48:13.871Z,33.07
2018-03-22T04:50:47.133Z,37.53
2018-03-22T04:53:19.564Z,35.33
2018-03-22T04:55:52.666Z,35.23
2018-03-22T04:58:25.376Z,35.40
2018-03-22T05:00:57.887Z,36.57
2018-03-22T05:03:30.421Z,36.70
2018-03-22T05:06:03.846Z,38.40
2018-03-22T05:08:36.338Z,46.00
2018-03-22T05:11:08.792Z,38.30
2018-03-22T05:13:41.253Z,38.10
2018-03-22T05:16:13.793Z,37.77
2018-03-22T05:18:46.301Z,41.30
2018-03-22T05:21:19.682Z,42.77
2018-03-22T05:23:52.198Z,38.60
2018-03-22T05:26:25.334Z,36.83
2018-03-22T05:28:58.031Z,40.20
2018-03-22T05:31:30.488Z,37.00
2018-03-22T05:34:03.022Z,42.13
2018-03-22T05:36:35.501Z,37.23
2018-03-22T05:39:08.012Z,37.07
2018-03-22T05:41:41.103Z,38.50
2018-03-22T05:44:13.652Z,39.57
2018-03-22T05:46:46.982Z,40.70
2018-03-22T05:49:19.646Z,43.33
2018-03-22T05:51:52.857Z,37.73
2018-03-22T05:54:26.202Z,40.43
2018-03-22T05:56:58.654Z,42.00
2018-03-22T05:59:31.792Z,44.67
2018-03-22T06:02:04.188Z,38.90
2018-03-22T06:04:36.639Z,44.30
2018-03-22T06:07:09.260Z,43.07
2018-03-22T06:09:42.343Z,39.93
2018-03-22T06:12:14.748Z,42.00
2018-03-22T06:14:47.887Z,47.87
2018-03-22T06:17:21.963Z,45.07
2018-03-22T06:19:54.476Z,40.97
2018-03-22T06:22:27.122Z,46.40
2018-03-22T06:24:59.653Z,47.20
2018-03-22T06:27:32.124Z,44.00
2018-03-22T06:30:04.781Z,46.53
2018-03-22T06:32:37.468Z,47.80
2018-03-22T06:35:09.879Z,45.33
2018-03-22T06:37:42.423Z,44.93
2018-03-22T06:40:14.938Z,50.40
2018-03-22T06:42:47.368Z,48.07
2018-03-22T06:45:19.843Z,43.73
2018-03-22T06:47:52.337Z,46.07
2018-03-22T06:50:25.592Z,50.60
2018-03-22T06:52:59.193Z,48.23
2018-03-22T06:55:31.662Z,52.53
2018-03-22T06:58:04.070Z,52.70
2018-03-22T07:00:36.844Z,50.37
2018-03-22T07:03:09.248Z,53.03
2018-03-22T07:05:42.406Z,51.23
2018-03-22T07:08:14.928Z,50.07
2018-03-22T07:10:48.475Z,48.97
2018-03-22T07:13:21.794Z,55.60
2018-03-22T07:15:54.327Z,53.53
2018-03-22T07:18:27.094Z,56.27
2018-03-22T07:21:00.078Z,58.17
2018-03-22T07:23:39.574Z,58.23
2018-03-22T07:26:12.787Z,54.80
2018-03-22T07:28:46.175Z,54.07
2018-03-22T07:31:18.563Z,68.73
2018-03-22T07:33:51.149Z,60.77
2018-03-22T07:36:24.447Z,60.57
2018-03-22T07:38:57.621Z,59.57
2018-03-22T07:41:30.928Z,57.33
2018-03-22T07:44:09.578Z,60.03
2018-03-22T07:46:42.050Z,60.23
2018-03-22T07:49:14.748Z,60.87
2018-03-22T07:51:47.209Z,63.47
2018-03-22T07:54:19.645Z,60.70
2018-03-22T07:56:52.364Z,62.70
2018-03-22T07:59:24.899Z,56.20
2018-03-22T08:01:57.411Z,55.83
2018-03-22T08:04:31.493Z,60.37
2018-03-22T08:07:03.981Z,67.27
2018-03-22T08:09:36.572Z,67.57
2018-03-22T08:12:09.303Z,66.27
2018-03-22T08:14:41.667Z,55.97
2018-03-22T08:17:14.305Z,53.77
2018-03-22T08:19:47.263Z,56.13
2018-03-22T08:22:20.727Z,56.37
2018-03-22T08:24:53.168Z,56.07
2018-03-22T08:27:26.644Z,49.20
2018-03-22T08:29:59.314Z,51.20
2018-03-22T08:32:32.629Z,55.20
2018-03-22T08:35:06.055Z,53.43
2018-03-22T08:37:38.698Z,45.87
2018-03-22T08:40:11.213Z,44.83
2018-03-22T08:42:43.854Z,39.10
2018-03-22T08:45:16.292Z,40.47
2018-03-22T08:47:48.733Z,41.03
2018-03-22T08:50:21.134Z,37.77
2018-03-22T08:52:53.674Z,36.53
2018-03-22T08:55:27.228Z,40.77
2018-03-22T08:57:59.704Z,40.73
2018-03-22T09:00:32.398Z,35.30
2018-03-22T09:03:04.949Z,36.67
2018-03-22T09:05:37.580Z,34.30
2018-03-22T09:08:10.210Z,35.20
2018-03-22T09:10:43.369Z,37.10
2018-03-22T09:13:15.964Z,34.87
2018-03-22T09:15:48.549Z,29.53
2018-03-22T09:18:21.073Z,31.13
2018-03-22T09:20:53.588Z,29.73
2018-03-22T09:23:26.138Z,31.30
2018-03-22T09:25:58.909Z,28.03
2018-03-22T09:28:31.343Z,28.80
2018-03-22T09:31:03.854Z,29.20
2018-03-22T09:33:36.242Z,27.93
2018-03-22T09:36:08.878Z,27.87
2018-03-22T09:38:42.113Z,26.23
2018-03-22T09:41:14.564Z,27.27
2018-03-22T09:43:47.783Z,24.43
2018-03-22T09:46:20.273Z,23.70
2018-03-22T09:48:53.463Z,23.67
2018-03-22T09:51:26.209Z,26.00
2018-03-22T09:53:59.472Z,25.07
2018-03-22T09:56:32.833Z,21.20
2018-03-22T09:59:05.401Z,23.17
2018-03-22T10:01:38.033Z,23.10
2018-03-22T10:04:10.439Z,25.40
2018-03-22T10:06:42.848Z,22.93
2018-03-22T10:09:15.358Z,23.13
2018-03-22T10:11:47.884Z,22.57
2018-03-22T10:14:20.344Z,22.80
2018-03-22T10:16:54.545Z,23.97
2018-03-22T10:19:27.168Z,22.30
2018-03-22T10:21:59.967Z,19.90
2018-03-22T10:24:32.501Z,21.17
2018-03-22T10:27:05.827Z,22.43
2018-03-22T10:29:38.458Z,24.80
2018-03-22T10:32:10.854Z,21.47
2018-03-22T10:34:44.115Z,23.13
2018-03-22T10:37:16.500Z,25.27
2018-03-22T10:42:28.055Z,25.37
2018-03-22T10:45:00.350Z,22.00
2018-03-22T10:47:32.820Z,26.00
2018-03-22T10:50:05.381Z,25.23
2018-03-22T10:52:37.838Z,27.03
2018-03-22T10:55:11.277Z,23.40
2018-03-22T10:57:44.732Z,24.03
2018-03-22T11:00:23.232Z,24.07
2018-03-22T11:02:56.560Z,21.63
2018-03-22T11:05:29.132Z,24.10
2018-03-22T11:08:02.183Z,23.47
2018-03-22T11:10:34.513Z,25.17
2018-03-22T11:13:07.116Z,23.47
2018-03-22T11:15:39.766Z,24.70
2018-03-22T11:18:12.529Z,24.33
2018-03-22T11:20:45.663Z,23.73
2018-03-22T11:23:18.113Z,24.60
2018-03-22T11:25:50.616Z,26.30
2018-03-22T11:28:23.249Z,25.03
2018-03-22T11:30:56.364Z,24.83
2018-03-22T11:33:28.721Z,24.63
2018-03-22T11:36:01.275Z,23.10
2018-03-22T11:38:33.774Z,26.10
2018-03-22T11:41:06.193Z,28.97
2018-03-22T11:43:38.770Z,26.20
2018-03-22T11:46:11.332Z,28.37
2018-03-22T11:48:44.489Z,24.50
2018-03-22T11:51:18.228Z,26.43
2018-03-22T11:53:50.642Z,25.80
2018-03-22T11:56:23.067Z,28.67
2018-03-22T11:58:55.425Z,26.10
2018-03-22T12:01:27.925Z,29.13
2018-03-22T12:04:00.424Z,27.67
2018-03-22T12:06:32.898Z,29.57
2018-03-22T12:09:05.320Z,27.33
2018-03-22T12:11:37.844Z,27.10
2018-03-22T12:14:10.390Z,29.47
2018-03-22T12:16:43.073Z,24.97
2018-03-22T12:19:15.844Z,27.70
2018-03-22T12:21:48.320Z,32.07
2018-03-22T12:24:20.858Z,33.83
2018-03-22T12:26:54.850Z,26.63
2018-03-22T12:29:28.481Z,32.67
2018-03-22T12:32:00.749Z,29.67
2018-03-22T12:34:33.270Z,31.87
2018-03-22T12:37:06.572Z,37.30
2018-03-22T12:39:39.809Z,32.97
2018-03-22T12:42:12.269Z,34.70
2018-03-22T12:44:45.845Z,34.77
2018-03-22T12:47:18.389Z,33.20
2018-03-22T12:49:51.494Z,30.13
2018-03-22T12:52:25.527Z,28.17
2018-03-22T12:54:58.240Z,31.63
2018-03-22T12:57:30.758Z,32.57
2018-03-22T13:00:03.588Z,34.73
2018-03-22T13:02:36.816Z,34.07
2018-03-22T13:05:10.085Z,30.63
2018-03-22T13:07:43.006Z,32.93
2018-03-22T13:10:15.445Z,30.33
2018-03-22T13:12:47.796Z,36.10
2018-03-22T13:15:20.443Z,34.23
2018-03-22T13:17:53.626Z,34.43
2018-03-22T13:20:26.909Z,37.77
2018-03-22T13:22:59.693Z,38.10
2018-03-22T13:25:32.093Z,38.17
2018-03-22T13:28:04.430Z,39.77
2018-03-22T13:30:37.616Z,43.63
2018-03-22T13:33:10.745Z,36.87
2018-03-22T13:35:43.395Z,41.30
2018-03-22T13:38:16.044Z,43.63
2018-03-22T13:40:48.489Z,43.63
2018-03-22T13:43:21.185Z,44.43
2018-03-22T13:45:53.648Z,47.47
2018-03-22T13:48:26.515Z,45.33
2018-03-22T13:50:59.579Z,44.77
2018-03-22T13:53:32.275Z,44.43
2018-03-22T13:56:04.959Z,49.07
2018-03-22T13:58:37.523Z,42.00
2018-03-22T14:01:10.205Z,46.87
2018-03-22T14:03:42.657Z,40.40
2018-03-22T14:06:15.035Z,45.40
2018-03-22T14:08:47.423Z,40.93
2018-03-22T14:11:19.724Z,41.87
2018-03-22T14:13:53.888Z,39.13
2018-03-22T14:16:26.632Z,38.40
2018-03-22T14:18:59.877Z,45.27
2018-03-22T14:21:32.339Z,44.57
2018-03-22T14:24:04.748Z,39.13
2018-03-22T14:26:38.173Z,33.47
2018-03-22T14:29:12.255Z,38.87
2018-03-22T14:31:44.689Z,36.70
2018-03-22T14:34:17.888Z,44.90
2018-03-22T14:36:51.008Z,39.90
2018-03-22T14:39:24.143Z,39.93
2018-03-22T14:41:56.980Z,44.70
2018-03-22T14:44:29.523Z,44.97
2018-03-22T14:47:02.124Z,41.10
2018-03-22T14:49:34.530Z,45.37
2018-03-22T14:52:07.045Z,42.70
2018-03-22T14:54:39.654Z,44.40
2018-03-22T14:57:12.270Z,42.57
2018-03-22T14:59:44.717Z,53.07
2018-03-22T15:02:17.663Z,46.70
2018-03-22T15:04:50.316Z,46.13
2018-03-22T15:07:22.740Z,43.13
2018-03-22T15:09:55.138Z,49.30
2018-03-22T15:12:28.693Z,47.80
2018-03-22T15:15:01.079Z,52.70
2018-03-22T15:17:34.344Z,48.40
2018-03-22T15:20:07.750Z,44.83
2018-03-22T15:22:40.344Z,46.83
2018-03-22T15:25:12.988Z,46.73
2018-03-22T15:27:45.545Z,48.23
2018-03-22T15:30:17.982Z,45.83
2018-03-22T15:32:51.377Z,44.03
2018-03-22T15:35:23.832Z,46.73
2018-03-22T15:37:57.145Z,50.00
2018-03-22T15:40:29.764Z,54.97
2018-03-22T15:43:02.394Z,46.93
2018-03-22T15:45:35.101Z,42.97
2018-03-22T15:48:07.525Z,45.77
2018-03-22T15:50:40.725Z,44.93
2018-03-22T15:53:13.244Z,40.17
2018-03-22T15:55:45.975Z,40.20
2018-03-22T15:58:18.424Z,49.83
2018-03-22T16:00:51.010Z,49.97
2018-03-22T16:03:23.559Z,42.80
2018-03-22T16:05:56.184Z,43.50
2018-03-22T16:08:29.520Z,39.70
2018-03-22T16:11:02.085Z,42.53
2018-03-22T16:13:34.584Z,49.67
2018-03-22T16:16:08.045Z,48.23
2018-03-22T16:18:40.365Z,46.63
2018-03-22T16:21:13.641Z,47.10
2018-03-22T16:23:46.611Z,53.70
2018-03-22T16:26:19.361Z,52.90
2018-03-22T16:28:51.986Z,47.90
2018-03-22T16:31:25.169Z,44.77
2018-03-22T16:33:57.795Z,45.23
2018-03-22T16:36:30.254Z,45.33
2018-03-22T16:39:03.641Z,42.43
2018-03-22T16:41:36.425Z,46.97
2018-03-22T16:44:09.641Z,43.07
2018-03-22T16:46:42.407Z,37.20
2018-03-22T16:49:14.864Z,43.00
2018-03-22T16:51:48.051Z,37.83
2018-03-22T16:54:20.729Z,45.30
2018-03-22T16:56:53.179Z,39.17
2018-03-22T16:59:25.619Z,39.80
2018-03-22T17:01:58.246Z,45.07
2018-03-22T17:04:30.810Z,32.60
2018-03-22T17:07:03.366Z,38.33
2018-03-22T17:09:36.880Z,35.03
2018-03-22T17:12:09.316Z,34.07
2018-03-22T17:14:42.505Z,32.87
2018-03-22T17:17:15.975Z,38.50
2018-03-22T17:19:48.604Z,37.10
2018-03-22T17:22:21.145Z,33.03
2018-03-22T17:24:54.417Z,29.40
2018-03-22T17:27:27.579Z,33.07
2018-03-22T17:30:00.739Z,33.80
2018-03-22T17:32:33.290Z,31.13
2018-03-22T17:35:06.416Z,26.13
2018-03-22T17:37:39.810Z,35.90
2018-03-22T17:40:16.484Z,35.47
2018-03-22T17:42:49.672Z,34.40
2018-03-22T17:45:22.146Z,35.17
2018-03-22T17:47:54.837Z,34.20
2018-03-22T17:50:27.880Z,28.93
2018-03-22T17:53:01.141Z,33.67
2018-03-22T17:55:33.884Z,32.70
2018-03-22T17:58:06.342Z,32.77
2018-03-22T18:00:38.936Z,31.13
2018-03-22T18:03:11.720Z,32.00
2018-03-22T18:05:44.369Z,31.83
2018-03-22T18:08:16.936Z,30.30
2018-03-22T18:10:50.119Z,29.13
2018-03-22T18:13:22.976Z,29.90
2018-03-22T18:15:55.555Z,39.40
2018-03-22T18:18:28.317Z,30.70
2018-03-22T18:21:00.937Z,32.47
2018-03-22T18:23:33.665Z,33.47
2018-03-22T18:26:06.070Z,34.50
2018-03-22T18:28:39.320Z,37.20
2018-03-22T18:31:12.008Z,33.23
2018-03-22T18:33:44.908Z,34.00
2018-03-22T18:36:17.330Z,36.67
2018-03-22T18:38:49.902Z,33.60
2018-03-22T18:41:23.199Z,30.07
2018-03-22T18:43:55.697Z,26.57
2018-03-22T18:46:28.462Z,27.77
2018-03-22T18:49:01.712Z,35.27
2018-03-22T18:51:34.210Z,28.33
2018-03-22T18:54:07.265Z,35.00
2018-03-22T18:56:39.817Z,29.27
2018-03-22T18:59:13.244Z,32.27
2018-03-22T19:01:47.310Z,29.30
2018-03-22T19:04:20.416Z,28.93
2018-03-22T19:06:52.980Z,27.20
2018-03-22T19:09:25.803Z,28.33
2018-03-22T19:11:58.375Z,30.00
2018-03-22T19:14:32.386Z,25.93
2018-03-22T19:17:05.136Z,25.03
2018-03-22T19:19:37.672Z,27.83
2018-03-22T19:22:10.316Z,29.73
2018-03-22T19:24:42.882Z,22.13
2018-03-22T19:27:15.557Z,26.37
2018-03-22T19:29:48.555Z,27.43
2018-03-22T19:32:21.991Z,27.13
2018-03-22T19:34:55.170Z,25.40
2018-03-22T19:37:27.680Z,27.73
2018-03-22T19:40:00.398Z,28.30
2018-03-22T19:42:33.271Z,28.23
2018-03-22T19:45:05.857Z,27.07
2018-03-22T19:47:39.153Z,31.67
2018-03-22T19:50:12.559Z,26.57
2018-03-22T19:52:45.367Z,29.20
2018-03-22T19:55:18.217Z,26.67
2018-03-22T19:57:51.052Z,26.57
2018-03-22T20:00:23.863Z,26.20
2018-03-22T20:02:56.407Z,29.77
2018-03-22T20:05:29.349Z,27.17
2018-03-22T20:08:02.795Z,28.03
2018-03-22T20:10:35.300Z,23.13
2018-03-22T20:13:07.901Z,32.77
2018-03-22T20:15:40.401Z,21.00
2018-03-22T20:18:13.076Z,28.97
2018-03-22T20:20:46.456Z,26.60
2018-03-22T20:23:19.901Z,25.50
2018-03-22T20:25:52.581Z,26.33
2018-03-22T20:28:25.222Z,26.27
2018-03-22T20:30:57.999Z,32.07
2018-03-22T20:33:30.455Z,29.47
2018-03-22T20:36:04.128Z,28.50
2018-03-22T20:38:36.637Z,28.10
2018-03-22T20:41:09.509Z,28.00
2018-03-22T20:43:42.240Z,23.77
2018-03-22T20:46:14.970Z,23.13
2018-03-22T20:48:51.638Z,22.97
2018-03-22T20:51:24.136Z,21.60
2018-03-22T20:53:57.060Z,24.17
2018-03-22T20:56:29.563Z,22.97
2018-03-22T20:59:02.096Z,22.73
2018-03-22T21:01:34.717Z,25.30
2018-03-22T21:04:07.479Z,27.93
2018-03-22T21:06:40.755Z,21.63
2018-03-22T21:09:14.025Z,30.57
2018-03-22T21:11:46.720Z,30.20
2018-03-22T21:14:19.441Z,30.10
2018-03-22T21:16:52.248Z,26.33
2018-03-22T21:19:24.745Z,24.50
2018-03-22T21:21:58.193Z,27.53
2018-03-22T21:24:30.737Z,36.07
2018-03-22T21:27:03.376Z,29.47
2018-03-22T21:29:36.160Z,29.27
2018-03-22T21:32:08.737Z,31.33
2018-03-22T21:34:41.491Z,30.03
2018-03-22T21:37:14.013Z,26.77
2018-03-22T21:39:46.664Z,26.13
2018-03-22T21:42:19.812Z,27.97
2018-03-22T21:44:52.506Z,27.20
2018-03-22T21:47:31.336Z,29.90
2018-03-22T21:50:03.794Z,29.20
2018-03-22T21:52:45.382Z,28.27
2018-03-22T21:55:18.040Z,27.20
2018-03-22T21:57:51.283Z,26.53
2018-03-22T22:00:23.876Z,34.57
2018-03-22T22:02:57.326Z,31.73
2018-03-22T22:05:29.854Z,30.47
2018-03-22T22:08:02.475Z,31.20
2018-03-22T22:10:35.297Z,25.20
2018-03-22T22:13:07.999Z,30.33
2018-03-22T22:15:40.740Z,25.80
2018-03-22T22:18:13.940Z,25.47
2018-03-22T22:20:46.462Z,23.27
2018-03-22T22:23:19.029Z,28.80
2018-03-22T22:25:51.744Z,27.83
2018-03-22T22:28:25.812Z,23.87
2018-03-22T22:30:58.950Z,22.43
2018-03-22T22:33:31.618Z,24.13
2018-03-22T22:36:04.091Z,23.40
2018-03-22T22:38:36.546Z,24.47
2018-03-22T22:41:09.337Z,29.33
2018-03-22T22:43:41.907Z,27.83
2018-03-22T22:46:15.376Z,24.13
2018-03-22T22:48:47.707Z,22.77
2018-03-22T22:51:20.381Z,25.97
2018-03-22T22:53:52.818Z,21.37
2018-03-22T22:56:25.424Z,21.17
2018-03-22T22:58:58.336Z,21.97
2018-03-22T23:01:31.007Z,23.63
2018-03-22T23:04:03.686Z,19.20
2018-03-22T23:06:36.275Z,21.90
2018-03-22T23:09:08.830Z,20.07
2018-03-22T23:11:42.930Z,23.17
2018-03-22T23:14:15.609Z,19.83
2018-03-22T23:16:48.168Z,26.77
2018-03-22T23:19:20.537Z,25.60
2018-03-22T23:21:53.058Z,23.23
2018-03-22T23:24:25.651Z,27.53
2018-03-22T23:26:58.241Z,22.70
2018-03-22T23:29:31.536Z,25.00
2018-03-22T23:32:04.870Z,23.60
2018-03-22T23:34:37.350Z,24.87
2018-03-22T23:37:09.749Z,24.03
2018-03-22T23:39:42.340Z,23.07
2018-03-22T23:42:14.782Z,22.33
2018-03-22T23:44:47.306Z,23.73
2018-03-22T23:47:19.772Z,26.60
2018-03-22T23:49:59.267Z,27.37
2018-03-22T23:52:31.671Z,22.43
2018-03-22T23:55:04.225Z,26.10
2018-03-22T23:57:36.764Z,19.30
